createdAt,value
2017-06-20T03:30:53.496Z,41.20
2017-06-20T03:33:21.139Z,41.00
2017-06-20T03:35:49.582Z,41.70
2017-06-20T03:38:17.240Z,41.50
2017-06-20T03:40:44.903Z,41.80
2017-06-20T03:43:12.678Z,42.20
2017-06-20T03:45:40.337Z,42.40
2017-06-20T03:48:08.017Z,42.50
2017-06-20T03:50:35.673Z,42.50
2017-06-20T03:53:03.352Z,42.50
2017-06-20T03:55:31.788Z,42.30
2017-06-20T03:57:59.825Z,42.30
2017-06-20T04:00:27.474Z,42.10
2017-06-20T04:02:56.092Z,41.50
2017-06-20T04:05:23.755Z,41.40
2017-06-20T04:07:51.393Z,41.20
2017-06-20T04:10:19.048Z,41.30
2017-06-20T04:12:47.459Z,42.00
2017-06-20T04:15:15.119Z,41.90
2017-06-20T04:17:42.856Z,42.00
2017-06-20T04:20:10.921Z,42.60
2017-06-20T04:22:38.576Z,42.60
2017-06-20T04:25:06.992Z,42.90
2017-06-20T04:27:35.148Z,42.90
2017-06-20T04:30:02.803Z,43.10
2017-06-20T04:32:30.484Z,43.00
2017-06-20T04:34:58.137Z,43.30
2017-06-20T04:37:26.106Z,43.20
2017-06-20T04:39:53.765Z,43.70
2017-06-20T04:42:21.396Z,43.10
2017-06-20T04:44:49.492Z,43.60
2017-06-20T04:47:17.147Z,43.10
2017-06-20T04:49:44.806Z,43.10
2017-06-20T04:52:13.548Z,44.30
2017-06-20T04:54:41.331Z,44.20
2017-06-20T04:57:08.973Z,43.80
2017-06-20T04:59:37.310Z,43.50
2017-06-20T05:02:04.959Z,43.90
2017-06-20T05:04:33.357Z,45.30
2017-06-20T05:07:01.333Z,45.30
2017-06-20T05:09:28.973Z,45.70
2017-06-20T05:11:56.609Z,45.70
2017-06-20T05:14:24.607Z,45.60
2017-06-20T05:16:52.244Z,45.30
2017-06-20T05:19:19.896Z,46.70
2017-06-20T05:21:47.888Z,47.00
2017-06-20T05:24:16.293Z,44.90
2017-06-20T05:26:43.925Z,44.80
2017-06-20T05:29:12.732Z,45.60
2017-06-20T05:31:40.394Z,45.60
2017-06-20T05:34:08.061Z,44.90
2017-06-20T05:36:36.011Z,45.40
2017-06-20T05:39:04.414Z,44.70
2017-06-20T05:41:32.083Z,44.70
2017-06-20T05:44:00.120Z,44.10
2017-06-20T05:46:27.761Z,44.20
2017-06-20T05:48:55.394Z,44.30
2017-06-20T05:51:23.434Z,43.90
2017-06-20T05:53:51.134Z,43.70
2017-06-20T05:56:18.829Z,43.20
2017-06-20T05:58:47.661Z,43.20
2017-06-20T06:01:15.320Z,43.10
2017-06-20T06:03:42.962Z,43.20
2017-06-20T06:06:11.040Z,43.60
2017-06-20T06:08:38.811Z,43.20
2017-06-20T06:11:06.496Z,43.10
2017-06-20T06:13:34.644Z,41.50
2017-06-20T06:16:02.307Z,40.50
2017-06-20T06:18:29.956Z,40.60
2017-06-20T06:20:58.022Z,41.20
2017-06-20T06:23:26.434Z,41.40
2017-06-20T06:25:54.096Z,41.40
2017-06-20T06:28:22.134Z,41.20
2017-06-20T06:30:50.552Z,40.50
2017-06-20T06:33:18.197Z,40.40
2017-06-20T06:35:46.235Z,39.90
2017-06-20T06:38:14.652Z,39.50
2017-06-20T06:40:42.296Z,39.50
2017-06-20T06:43:10.371Z,39.90
2017-06-20T06:45:38.021Z,40.10
2017-06-20T06:48:06.446Z,40.30
2017-06-20T06:50:34.476Z,40.30
2017-06-20T06:53:02.242Z,39.40
2017-06-20T06:55:29.895Z,38.40
2017-06-20T06:57:58.633Z,39.00
2017-06-20T07:00:26.385Z,39.00
2017-06-20T07:02:54.105Z,38.90
2017-06-20T07:05:22.906Z,37.60
2017-06-20T07:07:51.321Z,37.00
2017-06-20T07:10:18.965Z,37.00
2017-06-20T07:12:47.013Z,35.70
2017-06-20T07:15:14.672Z,36.40
2017-06-20T07:17:43.104Z,36.20
2017-06-20T07:20:11.146Z,35.50
2017-06-20T07:22:38.808Z,35.70
2017-06-20T07:25:06.453Z,37.40
2017-06-20T07:27:34.430Z,37.60
2017-06-20T07:30:02.093Z,37.20
2017-06-20T07:32:29.759Z,37.40
2017-06-20T07:34:57.812Z,36.20
2017-06-20T07:37:25.465Z,35.20
2017-06-20T07:39:53.982Z,34.50
2017-06-20T07:42:22.016Z,34.50
2017-06-20T07:44:50.442Z,34.50
2017-06-20T07:47:18.206Z,34.60
2017-06-20T07:49:46.196Z,34.40
2017-06-20T07:52:13.853Z,34.30
2017-06-20T07:54:41.533Z,33.10
2017-06-20T07:57:09.258Z,33.60
2017-06-20T07:59:36.924Z,33.00
2017-06-20T08:02:04.697Z,32.60
2017-06-20T08:04:32.352Z,32.30
2017-06-20T08:07:00.096Z,33.30
2017-06-20T08:09:27.838Z,32.20
2017-06-20T08:11:56.631Z,32.10
2017-06-20T08:14:25.059Z,32.60
2017-06-20T08:16:52.746Z,32.50
2017-06-20T08:19:20.409Z,31.00
2017-06-20T08:21:53.703Z,30.30
2017-06-20T08:24:21.377Z,30.90
2017-06-20T08:26:49.795Z,31.50
2017-06-20T08:29:17.484Z,31.50
2017-06-20T08:31:45.132Z,31.00
2017-06-20T08:34:12.809Z,31.10
2017-06-20T08:36:40.463Z,30.10
2017-06-20T08:39:08.511Z,28.60
2017-06-20T08:41:36.160Z,28.00
2017-06-20T08:44:03.819Z,28.60
2017-06-20T08:46:31.482Z,27.90
2017-06-20T08:48:59.121Z,26.80
2017-06-20T08:51:26.786Z,27.60
2017-06-20T08:53:55.207Z,26.10
2017-06-20T08:56:22.935Z,26.00
2017-06-20T08:58:51.357Z,25.90
2017-06-20T09:01:20.306Z,25.80
2017-06-20T09:03:48.712Z,22.40
2017-06-20T09:06:16.370Z,22.40
2017-06-20T09:08:44.114Z,22.10
2017-06-20T09:11:11.843Z,21.80
2017-06-20T09:13:39.516Z,21.60
2017-06-20T09:16:07.163Z,20.70
2017-06-20T09:18:34.831Z,20.40
2017-06-20T09:21:02.488Z,20.10
2017-06-20T09:23:30.162Z,20.50
2017-06-20T09:25:57.808Z,21.10
2017-06-20T09:28:25.825Z,20.00
2017-06-20T09:30:53.490Z,19.80
2017-06-20T09:33:21.154Z,20.50
2017-06-20T09:35:48.872Z,20.30
2017-06-20T09:38:16.536Z,21.30
2017-06-20T09:40:44.565Z,21.40
2017-06-20T09:43:17.911Z,20.90
2017-06-20T09:45:45.896Z,20.30
2017-06-20T09:48:14.352Z,20.50
2017-06-20T09:50:42.009Z,20.50
2017-06-20T09:53:10.141Z,21.90
2017-06-20T09:55:37.802Z,19.80
2017-06-20T09:58:05.458Z,19.10
2017-06-20T10:00:33.548Z,18.30
2017-06-20T10:03:01.181Z,17.50
2017-06-20T10:05:29.588Z,19.20
2017-06-20T10:07:57.640Z,19.20
2017-06-20T10:10:25.396Z,19.80
2017-06-20T10:12:53.803Z,17.90
2017-06-20T10:15:21.782Z,17.80
2017-06-20T10:17:49.435Z,18.50
2017-06-20T10:20:17.093Z,20.30
2017-06-20T10:22:45.085Z,21.30
2017-06-20T10:25:12.749Z,21.10
2017-06-20T10:27:40.392Z,20.60
2017-06-20T10:30:08.407Z,20.70
2017-06-20T10:32:36.060Z,19.60
2017-06-20T10:35:03.824Z,18.00
2017-06-20T10:37:31.825Z,18.00
2017-06-20T10:40:00.233Z,18.80
2017-06-20T10:42:27.864Z,18.80
2017-06-20T10:44:56.628Z,21.70
2017-06-20T10:47:24.281Z,21.70
2017-06-20T10:49:51.922Z,23.40
2017-06-20T10:52:19.904Z,23.90
2017-06-20T10:54:47.558Z,24.30
2017-06-20T10:57:15.188Z,24.90
2017-06-20T10:59:43.248Z,25.20
2017-06-20T11:02:10.904Z,25.80
2017-06-20T11:04:38.564Z,25.40
2017-06-20T11:07:06.651Z,25.30
2017-06-20T11:09:34.368Z,25.40
2017-06-20T11:12:02.019Z,25.20
2017-06-20T11:14:30.046Z,26.50
2017-06-20T11:16:57.811Z,26.10
2017-06-20T11:19:25.465Z,26.40
2017-06-20T11:21:53.571Z,26.30
2017-06-20T11:24:21.240Z,27.30
2017-06-20T11:26:48.902Z,27.20
2017-06-20T11:29:16.914Z,26.40
2017-06-20T11:31:45.414Z,25.40
2017-06-20T11:34:14.044Z,25.50
2017-06-20T11:36:42.065Z,25.60
2017-06-20T11:39:09.729Z,26.00
2017-06-20T11:41:37.391Z,26.70
2017-06-20T11:44:05.057Z,26.60
2017-06-20T11:46:32.685Z,26.70
2017-06-20T11:49:00.781Z,26.40
2017-06-20T11:51:29.221Z,27.50
2017-06-20T11:53:56.874Z,27.50
2017-06-20T11:56:24.890Z,26.20
2017-06-20T11:58:53.316Z,27.00
2017-06-20T12:01:20.968Z,27.00
2017-06-20T12:03:49.115Z,27.10
2017-06-20T12:06:16.770Z,27.10
2017-06-20T12:08:46.005Z,26.50
2017-06-20T12:11:14.026Z,26.50
2017-06-20T12:13:42.446Z,26.30
2017-06-20T12:16:10.109Z,26.30
2017-06-20T12:18:38.153Z,26.00
2017-06-20T12:21:05.836Z,25.60
2017-06-20T12:23:33.494Z,25.10
2017-06-20T12:26:01.173Z,24.50
2017-06-20T12:28:28.819Z,24.10
2017-06-20T12:30:56.500Z,24.70
2017-06-20T12:33:24.481Z,24.70
2017-06-20T12:35:52.150Z,25.00
2017-06-20T12:38:19.805Z,24.30
2017-06-20T12:40:47.781Z,25.00
2017-06-20T12:43:15.516Z,24.50
2017-06-20T12:45:43.164Z,24.30
2017-06-20T12:48:10.812Z,24.10
2017-06-20T12:50:38.452Z,24.80
2017-06-20T12:53:06.124Z,25.50
2017-06-20T12:55:34.220Z,25.20
2017-06-20T12:58:02.275Z,25.10
2017-06-20T13:00:30.704Z,24.10
2017-06-20T13:02:58.350Z,24.10
2017-06-20T13:05:26.378Z,24.60
2017-06-20T13:07:54.777Z,24.80
2017-06-20T13:10:22.430Z,24.70
2017-06-20T13:12:50.511Z,24.90
2017-06-20T13:15:18.167Z,25.00
2017-06-20T13:17:45.844Z,25.00
2017-06-20T13:20:13.899Z,24.80
2017-06-20T13:22:41.534Z,24.30
2017-06-20T13:25:09.218Z,24.20
2017-06-20T13:27:38.114Z,24.40
2017-06-20T13:30:05.757Z,24.40
2017-06-20T13:32:34.175Z,24.90
2017-06-20T13:35:02.316Z,24.80
2017-06-20T13:37:30.718Z,24.50
2017-06-20T13:39:58.441Z,24.50
2017-06-20T13:42:26.496Z,24.30
2017-06-20T13:44:54.239Z,25.10
2017-06-20T13:47:21.985Z,24.70
2017-06-20T13:49:50.041Z,25.80
2017-06-20T13:52:17.839Z,24.80
2017-06-20T13:54:45.657Z,25.40
2017-06-20T13:57:14.103Z,25.80
2017-06-20T13:59:41.760Z,25.80
2017-06-20T14:02:09.428Z,24.30
2017-06-20T14:04:37.152Z,25.20
2017-06-20T14:07:04.850Z,25.70
2017-06-20T14:09:38.638Z,25.40
2017-06-20T14:12:07.498Z,24.20
2017-06-20T14:14:35.190Z,24.20
2017-06-20T14:17:02.906Z,24.30
2017-06-20T14:19:31.345Z,25.40
2017-06-20T14:21:59.008Z,25.40
2017-06-20T14:24:26.820Z,25.30
2017-06-20T14:26:55.249Z,25.70
2017-06-20T14:29:22.903Z,25.60
2017-06-20T14:31:50.673Z,24.90
2017-06-20T14:34:18.725Z,25.90
2017-06-20T14:36:46.447Z,25.30
2017-06-20T14:39:14.181Z,25.60
2017-06-20T14:41:42.102Z,26.40
2017-06-20T14:44:09.878Z,25.50
2017-06-20T14:46:37.554Z,25.50
2017-06-20T14:49:05.228Z,25.20
2017-06-20T14:51:32.906Z,25.10
2017-06-20T14:54:00.995Z,25.90
2017-06-20T14:56:28.892Z,25.60
2017-06-20T14:58:56.577Z,26.70
2017-06-20T15:01:24.799Z,25.40
2017-06-20T15:03:52.459Z,26.10
2017-06-20T15:06:20.097Z,25.90
2017-06-20T15:08:47.781Z,26.00
2017-06-20T15:11:15.463Z,26.40
2017-06-20T15:13:43.901Z,26.70
2017-06-20T15:16:11.569Z,26.70
2017-06-20T15:18:39.542Z,26.90
2017-06-20T15:21:07.203Z,26.70
2017-06-20T15:23:34.867Z,26.20
2017-06-20T15:26:02.547Z,26.90
2017-06-20T15:28:30.213Z,26.40
2017-06-20T15:30:57.975Z,27.40
2017-06-20T15:33:25.646Z,27.10
2017-06-20T15:35:54.104Z,26.90
2017-06-20T15:38:21.745Z,26.90
2017-06-20T15:40:49.723Z,26.10
2017-06-20T15:43:17.381Z,26.40
2017-06-20T15:45:45.095Z,26.10
2017-06-20T15:48:12.773Z,26.70
2017-06-20T15:50:40.455Z,27.00
2017-06-20T15:53:08.143Z,26.70
2017-06-20T15:55:35.813Z,27.20
2017-06-20T15:58:03.809Z,27.00
2017-06-20T16:00:31.495Z,27.10
2017-06-20T16:02:59.192Z,26.70
2017-06-20T16:05:26.910Z,26.60
2017-06-20T16:07:54.570Z,27.00
2017-06-20T16:10:22.266Z,26.50
2017-06-20T16:12:51.133Z,26.10
2017-06-20T16:15:18.924Z,26.40
2017-06-20T16:17:47.563Z,26.20
2017-06-20T16:20:15.665Z,26.30
2017-06-20T16:22:43.440Z,26.40
2017-06-20T16:25:11.121Z,25.80
2017-06-20T16:27:39.156Z,26.40
2017-06-20T16:30:06.833Z,26.40
2017-06-20T16:32:34.509Z,26.10
2017-06-20T16:35:02.229Z,26.00
2017-06-20T16:37:29.908Z,26.50
2017-06-20T16:39:57.637Z,26.50
2017-06-20T16:42:26.136Z,26.90
2017-06-20T16:44:53.858Z,26.80
2017-06-20T16:47:21.555Z,27.00
2017-06-20T16:49:49.687Z,27.50
2017-06-20T16:52:17.398Z,26.80
2017-06-20T16:54:45.282Z,26.80
2017-06-20T16:57:13.337Z,27.10
2017-06-20T16:59:41.003Z,26.90
2017-06-20T17:02:08.696Z,26.60
2017-06-20T17:04:36.397Z,26.80
2017-06-20T17:07:04.108Z,26.80
2017-06-20T17:09:31.761Z,26.40
2017-06-20T17:11:59.764Z,26.10
2017-06-20T17:14:27.427Z,25.90
2017-06-20T17:16:55.145Z,25.80
2017-06-20T17:19:22.837Z,26.30
2017-06-20T17:21:50.520Z,25.80
2017-06-20T17:24:18.224Z,25.70
2017-06-20T17:26:45.931Z,25.40
2017-06-20T17:29:13.634Z,25.20
2017-06-20T17:31:42.065Z,26.50
2017-06-20T17:34:09.783Z,26.40
2017-06-20T17:36:38.299Z,25.80
2017-06-20T17:39:05.979Z,25.80
2017-06-20T17:41:33.715Z,26.40
2017-06-20T17:47:10.126Z,26.60
2017-06-20T17:49:37.778Z,26.50
2017-06-20T17:55:00.435Z,25.90
2017-06-20T17:57:28.141Z,25.90
2017-06-20T17:59:55.816Z,26.30
2017-06-20T18:02:23.841Z,26.60
2017-06-20T18:04:51.514Z,26.70
2017-06-20T18:07:19.174Z,26.30
2017-06-20T18:09:46.832Z,26.30
2017-06-20T18:12:14.484Z,26.50
2017-06-20T18:14:42.141Z,26.70
2017-06-20T18:17:09.804Z,26.80
2017-06-20T18:19:37.608Z,26.80
2017-06-20T18:22:05.294Z,26.80
2017-06-20T19:02:03.854Z,29.00
2017-06-20T19:04:32.265Z,28.90
2017-06-20T19:06:59.914Z,28.90
2017-06-20T19:09:27.597Z,29.00
2017-06-20T19:11:55.283Z,29.30
2017-06-20T19:14:23.584Z,29.30
2017-06-20T19:16:51.273Z,29.20
2017-06-20T19:19:18.937Z,29.10
2017-06-20T19:21:46.929Z,29.00
2017-06-20T19:24:14.585Z,29.10
2017-06-20T19:26:42.314Z,29.20
2017-06-20T19:29:11.100Z,29.50
2017-06-20T19:31:39.514Z,29.40
2017-06-20T19:34:07.187Z,29.40
2017-06-20T19:36:35.229Z,29.30
2017-06-20T19:39:02.869Z,29.50
2017-06-20T19:41:31.307Z,29.50
2017-06-20T19:43:59.302Z,29.50
2017-06-20T19:46:26.977Z,29.70
2017-06-20T19:48:54.644Z,29.80
2017-06-20T19:51:23.571Z,30.10
2017-06-20T19:53:51.353Z,30.00
2017-06-20T19:56:19.030Z,30.00
2017-06-20T19:58:47.795Z,30.20
2017-06-20T20:01:15.486Z,30.50
2017-06-20T20:03:43.181Z,30.70
2017-06-20T20:06:11.934Z,31.10
2017-06-20T20:08:39.722Z,31.10
2017-06-20T20:11:07.498Z,31.60
2017-06-20T20:13:36.313Z,31.80
2017-06-20T20:16:03.993Z,31.80
2017-06-20T20:18:31.652Z,32.30
2017-06-20T20:20:59.732Z,32.40
2017-06-20T20:23:27.411Z,32.70
2017-06-20T20:25:55.059Z,32.70
2017-06-20T20:28:23.094Z,32.10
2017-06-20T20:30:50.754Z,32.40
2017-06-20T20:33:18.439Z,32.50
2017-06-20T20:35:46.486Z,32.80
2017-06-20T20:38:14.156Z,31.80
2017-06-20T20:40:41.845Z,31.50
2017-06-20T20:43:09.877Z,31.80
2017-06-20T20:45:38.302Z,32.30
2017-06-20T20:48:05.969Z,32.30
2017-06-20T20:50:34.012Z,32.50
2017-06-20T20:53:01.662Z,32.60
2017-06-20T20:55:29.300Z,32.50
2017-06-20T20:57:58.046Z,33.00
2017-06-20T21:00:25.704Z,33.00
2017-06-20T21:02:53.376Z,33.20
2017-06-20T21:05:21.413Z,33.20
2017-06-20T21:07:49.111Z,33.60
2017-06-20T21:10:16.777Z,34.00
2017-06-20T21:12:44.810Z,34.10
2017-06-20T21:15:12.453Z,34.30
2017-06-20T21:17:40.954Z,34.40
2017-06-20T21:20:08.940Z,34.30
2017-06-20T21:22:36.576Z,34.20
2017-06-20T21:25:04.223Z,34.00
2017-06-20T21:27:33.005Z,33.60
2017-06-20T21:30:01.433Z,33.50
